createdAt,value
2019-05-07T00:01:02.698Z,5.55
2019-05-07T00:03:32.845Z,5.62
2019-05-07T00:06:02.803Z,6.53
2019-05-07T00:08:32.354Z,6.00
2019-05-07T00:11:02.421Z,6.00
2019-05-07T00:13:33.286Z,6.60
2019-05-07T00:16:02.673Z,6.53
2019-05-07T00:18:32.339Z,5.97
2019-05-07T00:21:03.541Z,6.10
2019-05-07T00:23:32.767Z,5.72
2019-05-07T00:26:02.633Z,7.00
2019-05-07T00:28:32.462Z,6.20
2019-05-07T00:31:02.857Z,6.22
2019-05-07T00:33:32.837Z,7.10
2019-05-07T00:36:12.433Z,6.77
2019-05-07T00:38:43.944Z,6.75
2019-05-07T00:41:19.689Z,6.97
2019-05-07T00:43:52.497Z,6.30
2019-05-07T00:46:24.531Z,5.90
2019-05-07T00:48:53.719Z,5.87
2019-05-07T00:51:26.606Z,6.57
2019-05-07T00:53:55.589Z,6.33
2019-05-07T00:56:24.795Z,6.17
2019-05-07T00:58:54.201Z,6.40
2019-05-07T01:01:23.191Z,5.83
2019-05-07T01:03:53.432Z,6.25
2019-05-07T01:06:24.575Z,5.73
2019-05-07T01:08:53.382Z,6.28
2019-05-07T01:11:22.775Z,5.80
2019-05-07T01:13:52.144Z,5.97
2019-05-07T01:16:22.239Z,5.33
2019-05-07T01:18:53.623Z,6.15
2019-05-07T01:21:22.715Z,5.90
2019-05-07T01:23:52.611Z,6.03
2019-05-07T01:26:22.136Z,5.25
2019-05-07T01:29:03.005Z,5.62
2019-05-07T01:31:37.018Z,5.22
2019-05-07T01:34:14.629Z,6.15
2019-05-07T01:36:43.977Z,6.67
2019-05-07T01:39:13.235Z,7.45
2019-05-07T01:41:42.595Z,6.73
2019-05-07T01:44:12.810Z,6.15
2019-05-07T01:46:42.251Z,6.47
2019-05-07T01:49:12.523Z,6.28
2019-05-07T01:51:42.381Z,5.93
2019-05-07T01:54:12.942Z,5.87
2019-05-07T01:56:42.748Z,6.30
2019-05-07T01:59:12.112Z,6.35
2019-05-07T02:01:42.956Z,5.78
2019-05-07T02:04:24.063Z,6.05
2019-05-07T02:07:30.742Z,6.00
2019-05-07T02:10:18.855Z,6.25
2019-05-07T02:12:47.786Z,5.42
2019-05-07T02:15:16.903Z,5.72
2019-05-07T02:17:45.814Z,5.70
2019-05-07T02:20:14.871Z,5.85
2019-05-07T02:22:44.370Z,5.90
2019-05-07T02:25:13.413Z,5.53
2019-05-07T02:27:42.858Z,6.45
2019-05-07T02:30:14.790Z,5.72
2019-05-07T02:32:43.624Z,5.87
2019-05-07T02:35:13.510Z,6.10
2019-05-07T02:37:56.190Z,6.35
2019-05-07T02:40:28.132Z,5.95
2019-05-07T02:42:57.730Z,6.20
2019-05-07T02:45:44.226Z,5.90
2019-05-07T02:48:14.842Z,5.58
2019-05-07T02:50:58.731Z,5.77
2019-05-07T02:53:55.933Z,5.72
2019-05-07T02:56:24.859Z,6.50
2019-05-07T02:58:53.839Z,5.67
2019-05-07T03:01:22.912Z,6.97
2019-05-07T03:03:52.912Z,6.95
2019-05-07T03:06:23.253Z,6.97
2019-05-07T03:08:53.577Z,6.65
2019-05-07T03:11:23.032Z,6.73
2019-05-07T03:13:53.696Z,6.65
2019-05-07T03:16:38.040Z,5.83
2019-05-07T03:18:54.005Z,6.15
2019-05-07T03:21:23.735Z,5.63
2019-05-07T03:24:03.429Z,6.08
2019-05-07T03:26:37.474Z,6.30
2019-05-07T03:29:13.109Z,6.85
2019-05-07T03:31:56.222Z,6.10
2019-05-07T03:34:47.563Z,5.83
2019-05-07T03:37:19.415Z,6.42
2019-05-07T03:39:48.590Z,6.42
2019-05-07T03:42:17.582Z,6.07
2019-05-07T03:44:55.472Z,6.08
2019-05-07T03:47:28.820Z,6.17
2019-05-07T03:49:58.184Z,6.25
2019-05-07T03:52:27.134Z,6.27
2019-05-07T03:54:56.432Z,6.35
2019-05-07T03:57:25.299Z,6.33
2019-05-07T03:59:54.883Z,5.85
2019-05-07T04:02:24.258Z,5.42
2019-05-07T04:04:53.460Z,5.47
2019-05-07T04:07:23.463Z,5.28
2019-05-07T04:09:53.590Z,4.97
2019-05-07T04:12:23.909Z,5.40
2019-05-07T04:14:53.743Z,5.95
2019-05-07T04:17:26.760Z,5.60
2019-05-07T04:19:54.063Z,6.03
2019-05-07T04:22:26.441Z,6.10
2019-05-07T04:25:23.929Z,6.40
2019-05-07T04:28:17.908Z,6.12
2019-05-07T04:30:47.255Z,6.03
2019-05-07T04:33:18.285Z,6.50
2019-05-07T04:35:53.816Z,6.63
2019-05-07T04:38:24.039Z,6.62
2019-05-07T04:40:53.711Z,6.80
2019-05-07T04:43:23.316Z,7.00
2019-05-07T04:45:53.640Z,7.13
2019-05-07T04:48:23.559Z,7.45
2019-05-07T04:50:54.754Z,8.00
2019-05-07T04:53:23.979Z,7.50
2019-05-07T04:55:53.743Z,7.10
2019-05-07T04:58:24.134Z,8.08
2019-05-07T05:00:53.968Z,8.75
2019-05-07T05:03:25.303Z,8.40
2019-05-07T05:05:54.780Z,8.43
2019-05-07T05:08:24.189Z,7.62
2019-05-07T05:10:54.018Z,8.60
2019-05-07T05:13:23.930Z,8.18
2019-05-07T05:15:53.221Z,8.10
2019-05-07T05:18:22.555Z,7.90
2019-05-07T05:21:13.499Z,8.67
2019-05-07T05:23:52.338Z,8.15
2019-05-07T05:26:21.962Z,7.95
2019-05-07T05:28:52.554Z,8.00
2019-05-07T05:31:22.372Z,8.30
2019-05-07T05:33:52.639Z,7.83
2019-05-07T05:36:22.312Z,8.23
2019-05-07T05:38:52.911Z,8.55
2019-05-07T05:41:22.979Z,8.27
2019-05-07T05:44:11.899Z,8.75
2019-05-07T05:46:42.876Z,7.70
2019-05-07T05:49:12.276Z,7.37
2019-05-07T05:51:47.615Z,8.33
2019-05-07T05:54:35.667Z,8.20
2019-05-07T05:57:23.939Z,7.85
2019-05-07T06:00:24.188Z,8.48
2019-05-07T06:03:02.530Z,7.97
2019-05-07T06:05:55.788Z,7.80
2019-05-07T06:08:52.937Z,8.20
2019-05-07T06:11:32.487Z,7.22
2019-05-07T06:14:06.680Z,8.20
2019-05-07T06:17:15.556Z,8.10
2019-05-07T06:20:03.028Z,7.17
2019-05-07T06:22:47.442Z,8.80
2019-05-07T06:25:19.258Z,8.18
2019-05-07T06:27:48.429Z,9.20
2019-05-07T06:30:18.439Z,8.20
2019-05-07T06:32:47.412Z,8.00
2019-05-07T06:35:19.386Z,8.67
2019-05-07T06:37:49.076Z,8.87
2019-05-07T06:40:34.615Z,8.13
2019-05-07T06:43:18.625Z,7.83
2019-05-07T06:45:53.749Z,9.27
2019-05-07T06:48:37.975Z,9.33
2019-05-07T06:51:00.100Z,9.63
2019-05-07T06:53:32.977Z,9.27
2019-05-07T06:56:02.873Z,9.97
2019-05-07T06:59:02.234Z,9.50
2019-05-07T07:02:02.614Z,9.20
2019-05-07T07:04:42.345Z,9.07
2019-05-07T07:07:29.648Z,9.48
2019-05-07T07:10:12.005Z,9.60
2019-05-07T07:12:42.472Z,10.17
2019-05-07T07:15:12.221Z,10.20
2019-05-07T07:17:41.985Z,9.37
2019-05-07T07:20:12.732Z,9.00
2019-05-07T07:22:42.557Z,9.63
2019-05-07T07:25:12.127Z,8.67
2019-05-07T07:27:42.946Z,8.83
2019-05-07T07:30:22.067Z,9.23
2019-05-07T07:32:51.966Z,9.80
2019-05-07T07:35:22.574Z,10.40
2019-05-07T07:37:53.089Z,11.43
2019-05-07T07:40:32.912Z,11.00
2019-05-07T07:43:04.882Z,11.03
2019-05-07T07:45:32.580Z,10.50
2019-05-07T07:48:02.263Z,10.33
2019-05-07T07:50:33.089Z,9.03
2019-05-07T07:53:02.631Z,10.93
2019-05-07T07:55:39.978Z,10.90
2019-05-07T07:58:19.504Z,9.23
2019-05-07T08:00:55.343Z,9.60
2019-05-07T08:03:24.274Z,11.43
2019-05-07T08:05:53.566Z,10.37
2019-05-07T08:08:22.627Z,9.63
2019-05-07T08:10:52.080Z,10.77
2019-05-07T08:13:22.876Z,11.10
2019-05-07T08:15:52.154Z,10.03
2019-05-07T08:18:22.255Z,11.07
2019-05-07T08:20:52.000Z,10.57
2019-05-07T08:23:22.620Z,10.37
2019-05-07T08:25:52.672Z,11.63
2019-05-07T08:28:23.225Z,10.90
2019-05-07T08:31:11.903Z,11.37
2019-05-07T08:33:49.162Z,11.10
2019-05-07T08:36:18.431Z,10.00
2019-05-07T08:38:52.697Z,9.57
2019-05-07T08:41:23.791Z,9.47
2019-05-07T08:44:08.227Z,10.23
2019-05-07T08:46:34.987Z,8.93
2019-05-07T08:49:04.593Z,10.63
2019-05-07T08:51:33.624Z,10.67
2019-05-07T08:54:05.953Z,9.00
2019-05-07T08:56:36.062Z,11.17
2019-05-07T08:59:05.830Z,11.27
2019-05-07T09:01:35.681Z,11.47
2019-05-07T09:04:05.281Z,11.70
2019-05-07T09:06:34.727Z,10.67
2019-05-07T09:09:09.727Z,10.63
2019-05-07T09:11:38.895Z,10.30
2019-05-07T09:14:08.004Z,9.63
2019-05-07T09:16:37.051Z,10.17
2019-05-07T09:19:06.597Z,10.43
2019-05-07T09:21:36.558Z,10.43
2019-05-07T09:24:06.435Z,9.20
2019-05-07T09:26:47.344Z,9.23
2019-05-07T09:29:35.636Z,10.20
2019-05-07T09:32:28.599Z,9.80
2019-05-07T09:34:58.132Z,9.90
2019-05-07T09:37:27.966Z,11.00
2019-05-07T09:39:57.054Z,11.07
2019-05-07T09:42:26.053Z,9.43
2019-05-07T09:44:55.081Z,9.80
2019-05-07T09:47:24.632Z,9.70
2019-05-07T09:50:04.259Z,8.33
2019-05-07T09:52:24.151Z,9.87
2019-05-07T09:54:53.587Z,9.13
2019-05-07T09:57:30.427Z,10.37
2019-05-07T09:59:53.315Z,9.60
2019-05-07T10:02:22.806Z,9.50
2019-05-07T10:04:52.770Z,10.17
2019-05-07T10:07:22.486Z,10.57
2019-05-07T10:09:52.503Z,10.13
2019-05-07T10:12:39.208Z,9.80
2019-05-07T10:15:08.298Z,9.80
2019-05-07T10:17:48.414Z,8.57
2019-05-07T10:20:22.411Z,7.83
2019-05-07T10:22:49.194Z,7.37
2019-05-07T10:25:18.310Z,7.90
2019-05-07T10:27:47.627Z,7.30
2019-05-07T10:33:05.494Z,8.47
2019-05-07T10:35:34.532Z,7.27
2019-05-07T10:38:03.510Z,8.27
2019-05-07T10:40:32.822Z,9.07
2019-05-07T10:43:01.974Z,7.50
2019-05-07T10:45:52.070Z,7.77
2019-05-07T10:48:43.362Z,6.83
2019-05-07T10:51:12.847Z,8.83
2019-05-07T10:53:42.570Z,7.93
2019-05-07T10:56:11.969Z,9.13
2019-05-07T10:58:41.776Z,7.67
2019-05-07T11:01:12.996Z,8.07
2019-05-07T11:03:41.982Z,7.77
2019-05-07T11:06:11.959Z,7.63
2019-05-07T11:08:42.870Z,7.53
2019-05-07T11:11:12.195Z,8.47
2019-05-07T11:13:42.215Z,8.50
2019-05-07T11:16:13.688Z,9.33
2019-05-07T11:18:48.025Z,8.03
2019-05-07T11:21:19.873Z,7.80
2019-05-07T11:23:48.860Z,7.37
2019-05-07T11:26:18.254Z,7.73
2019-05-07T11:28:47.434Z,8.07
2019-05-07T11:31:16.360Z,8.63
2019-05-07T11:33:45.672Z,8.20
2019-05-07T11:36:15.027Z,8.03
2019-05-07T11:38:44.645Z,8.17
2019-05-07T11:41:13.920Z,8.27
2019-05-07T11:43:56.291Z,7.93
2019-05-07T11:46:38.654Z,8.10
2019-05-07T11:49:15.022Z,7.80
2019-05-07T11:52:05.974Z,6.87
2019-05-07T11:54:35.056Z,7.00
2019-05-07T11:57:04.151Z,7.10
2019-05-07T11:59:33.417Z,7.57
2019-05-07T12:02:05.815Z,8.30
2019-05-07T12:04:35.109Z,7.53
2019-05-07T12:07:04.175Z,7.70
2019-05-07T12:09:33.471Z,7.77
2019-05-07T12:12:02.561Z,6.77
2019-05-07T12:14:34.353Z,6.80
2019-05-07T12:17:02.779Z,6.90
2019-05-07T12:19:33.072Z,6.77
2019-05-07T12:22:03.067Z,6.47
2019-05-07T12:24:32.831Z,6.87
2019-05-07T12:27:02.699Z,7.03
2019-05-07T12:29:32.320Z,5.47
2019-05-07T12:32:23.638Z,4.50
2019-05-07T12:34:57.044Z,3.90
2019-05-07T12:37:25.986Z,4.13
2019-05-07T12:39:54.887Z,3.77
2019-05-07T12:42:23.971Z,5.77
2019-05-07T12:44:52.983Z,5.07
2019-05-07T12:47:22.591Z,5.13
2019-05-07T12:49:51.731Z,5.33
2019-05-07T12:52:28.662Z,4.83
2019-05-07T12:55:16.762Z,5.23
2019-05-07T12:57:45.755Z,4.50
2019-05-07T13:00:33.076Z,6.60
2019-05-07T13:03:21.749Z,6.50
2019-05-07T13:05:52.060Z,6.03
2019-05-07T13:08:23.014Z,6.00
2019-05-07T13:10:52.193Z,5.73
2019-05-07T13:13:21.158Z,5.37
2019-05-07T13:15:51.792Z,5.40
2019-05-07T13:18:22.657Z,5.03
2019-05-07T13:20:52.090Z,5.40
2019-05-07T13:23:22.504Z,4.93
2019-05-07T13:25:52.260Z,4.87
2019-05-07T13:28:21.315Z,4.47
2019-05-07T13:30:52.480Z,4.30
2019-05-07T13:33:22.830Z,3.83
2019-05-07T13:35:52.469Z,4.97
2019-05-07T13:38:43.846Z,4.23
2019-05-07T13:41:31.814Z,4.30
2019-05-07T13:44:38.182Z,4.83
2019-05-07T13:47:27.434Z,4.97
2019-05-07T13:49:56.846Z,4.80
2019-05-07T13:52:26.205Z,4.40
2019-05-07T13:54:55.593Z,5.03
2019-05-07T13:57:24.817Z,4.93
2019-05-07T13:59:54.555Z,4.30
2019-05-07T14:02:25.722Z,4.93
2019-05-07T14:04:54.936Z,4.07
2019-05-07T14:07:25.211Z,4.57
2019-05-07T14:09:54.212Z,4.07
2019-05-07T14:12:23.402Z,4.03
2019-05-07T14:14:53.028Z,4.27
2019-05-07T14:17:22.701Z,5.20
2019-05-07T14:19:53.089Z,5.00
2019-05-07T14:22:22.803Z,4.60
2019-05-07T14:24:52.954Z,4.37
2019-05-07T14:27:22.465Z,4.50
2019-05-07T14:29:51.972Z,4.10
2019-05-07T14:32:49.531Z,3.83
2019-05-07T14:35:29.576Z,3.67
2019-05-07T14:38:22.703Z,3.97
2019-05-07T14:40:52.049Z,4.03
2019-05-07T14:43:28.030Z,4.27
2019-05-07T14:45:56.951Z,3.63
2019-05-07T14:48:25.969Z,4.17
2019-05-07T14:50:55.039Z,3.67
2019-05-07T14:53:24.387Z,3.77
2019-05-07T14:55:53.817Z,3.80
2019-05-07T14:58:23.198Z,3.60
2019-05-07T15:00:52.213Z,3.20
2019-05-07T15:03:22.906Z,3.53
2019-05-07T15:05:52.591Z,3.27
2019-05-07T15:08:22.017Z,3.60
2019-05-07T15:10:52.484Z,3.30
2019-05-07T15:13:21.929Z,3.20
2019-05-07T15:15:52.508Z,3.23
2019-05-07T15:18:26.286Z,4.00
2019-05-07T15:20:55.306Z,3.27
2019-05-07T15:23:34.085Z,3.23
2019-05-07T15:26:04.804Z,3.07
2019-05-07T15:28:35.157Z,3.00
2019-05-07T15:31:12.101Z,3.57
2019-05-07T15:33:41.774Z,3.20
2019-05-07T15:36:11.966Z,2.77
2019-05-07T15:38:42.946Z,3.00
2019-05-07T15:41:12.205Z,2.93
2019-05-07T15:43:43.915Z,3.30
2019-05-07T15:46:12.219Z,2.33
2019-05-07T15:48:42.056Z,2.17
2019-05-07T15:51:11.883Z,2.43
2019-05-07T15:53:52.117Z,2.53
2019-05-07T15:56:21.891Z,2.63
2019-05-07T15:58:51.747Z,3.07
2019-05-07T16:01:22.152Z,2.57
2019-05-07T16:03:54.436Z,2.30
2019-05-07T16:06:22.152Z,2.13
2019-05-07T16:08:57.411Z,2.50
2019-05-07T16:11:26.413Z,3.30
2019-05-07T16:14:14.662Z,3.10
2019-05-07T16:16:46.214Z,3.10
2019-05-07T16:19:19.946Z,3.13
2019-05-07T16:21:49.271Z,2.40
2019-05-07T16:24:18.255Z,2.50
2019-05-07T16:26:47.449Z,2.40
2019-05-07T16:29:16.319Z,2.90
2019-05-07T16:31:45.236Z,3.03
2019-05-07T16:34:14.092Z,3.17
2019-05-07T16:36:43.525Z,3.37
2019-05-07T16:39:12.467Z,2.70
2019-05-07T16:41:42.339Z,2.83
2019-05-07T16:44:12.440Z,3.07
2019-05-07T16:46:42.169Z,3.50
2019-05-07T16:49:12.190Z,2.67
2019-05-07T16:51:44.278Z,2.80
2019-05-07T16:54:12.268Z,2.50
2019-05-07T16:57:02.962Z,3.77
2019-05-07T16:59:32.337Z,2.87
2019-05-07T17:02:05.651Z,2.90
2019-05-07T17:04:34.571Z,3.00
2019-05-07T17:07:05.198Z,2.73
2019-05-07T17:09:35.448Z,2.67
2019-05-07T17:12:07.487Z,2.93
2019-05-07T17:14:36.755Z,2.50
2019-05-07T17:17:05.565Z,2.73
2019-05-07T17:19:34.823Z,3.43
2019-05-07T17:22:06.333Z,3.70
2019-05-07T17:24:34.482Z,4.40
2019-05-07T17:27:03.341Z,3.47
2019-05-07T17:29:32.765Z,3.13
2019-05-07T17:32:01.803Z,3.60
2019-05-07T17:34:31.107Z,3.13
2019-05-07T17:37:02.004Z,3.10
2019-05-07T17:39:32.192Z,3.40
2019-05-07T17:42:02.497Z,2.67
2019-05-07T17:44:32.408Z,3.10
2019-05-07T17:47:02.117Z,2.67
2019-05-07T17:49:32.744Z,2.57
2019-05-07T17:52:02.967Z,3.13
2019-05-07T17:54:32.123Z,2.40
2019-05-07T17:57:01.976Z,2.60
2019-05-07T17:59:32.101Z,2.80
2019-05-07T18:02:18.682Z,2.77
2019-05-07T18:04:51.466Z,2.67
2019-05-07T18:07:19.100Z,2.40
2019-05-07T18:09:48.040Z,2.57
2019-05-07T18:12:16.959Z,2.23
2019-05-07T18:14:46.279Z,2.63
2019-05-07T18:17:34.582Z,2.50
2019-05-07T18:20:04.141Z,2.97
2019-05-07T18:22:33.121Z,3.53
2019-05-07T18:25:02.126Z,3.20
2019-05-07T18:27:33.024Z,3.00
2019-05-07T18:30:02.809Z,3.00
2019-05-07T18:32:36.858Z,3.20
2019-05-07T18:35:06.114Z,3.03
2019-05-07T18:37:36.705Z,3.03
2019-05-07T18:40:05.783Z,3.10
2019-05-07T18:42:34.797Z,2.37
2019-05-07T18:45:04.778Z,2.10
2019-05-07T18:47:33.686Z,2.27
2019-05-07T18:50:02.988Z,2.20
2019-05-07T18:52:32.094Z,1.97
2019-05-07T18:55:02.705Z,1.83
2019-05-07T18:57:32.798Z,1.80
2019-05-07T19:00:05.028Z,2.13
2019-05-07T19:02:32.838Z,2.03
2019-05-07T19:05:02.770Z,2.07
2019-05-07T19:07:32.441Z,2.00
2019-05-07T19:10:02.679Z,2.50
2019-05-07T19:12:33.812Z,2.20
2019-05-07T19:15:03.106Z,2.10
2019-05-07T19:17:32.342Z,2.23
2019-05-07T19:20:03.425Z,2.30
2019-05-07T19:22:33.074Z,2.40
2019-05-07T19:25:02.988Z,1.97
2019-05-07T19:27:32.729Z,2.70
2019-05-07T19:30:02.267Z,2.67
2019-05-07T19:32:35.466Z,2.80
2019-05-07T19:35:04.792Z,2.57
2019-05-07T19:37:33.837Z,2.13
2019-05-07T19:40:03.171Z,2.53
2019-05-07T19:42:32.095Z,1.83
2019-05-07T19:45:02.651Z,2.00
2019-05-07T19:47:32.697Z,2.30
2019-05-07T19:50:02.252Z,1.90
2019-05-07T19:52:33.181Z,2.10
2019-05-07T19:55:04.707Z,2.20
2019-05-07T19:57:37.720Z,2.27
2019-05-07T20:00:08.874Z,2.40
2019-05-07T20:02:43.162Z,2.40
2019-05-07T20:05:12.991Z,2.17
2019-05-07T20:07:42.393Z,2.10
2019-05-07T20:10:13.312Z,2.30
2019-05-07T20:12:42.854Z,2.10
2019-05-07T20:15:12.344Z,2.00
2019-05-07T20:17:41.974Z,2.30
2019-05-07T20:20:12.538Z,2.10
2019-05-07T20:22:41.696Z,2.23
2019-05-07T20:25:18.140Z,2.20
2019-05-07T20:27:41.900Z,1.87
2019-05-07T20:30:12.176Z,2.33
2019-05-07T20:32:42.812Z,2.40
2019-05-07T20:35:12.193Z,2.20
2019-05-07T20:37:41.970Z,2.87
2019-05-07T20:40:12.209Z,2.57
2019-05-07T20:42:44.029Z,2.85
2019-05-07T20:45:13.494Z,3.12
2019-05-07T20:47:43.483Z,2.15
2019-05-07T20:50:12.827Z,2.60
2019-05-07T20:52:42.530Z,2.45
2019-05-07T20:55:36.473Z,3.60
2019-05-07T20:58:05.749Z,3.10
2019-05-07T21:00:35.466Z,3.03
2019-05-07T21:03:19.887Z,2.70
2019-05-07T21:05:52.715Z,2.83
2019-05-07T21:08:22.787Z,2.60
2019-05-07T21:10:53.636Z,2.20
2019-05-07T21:13:32.417Z,2.70
2019-05-07T21:15:53.553Z,2.70
2019-05-07T21:18:23.375Z,2.33
2019-05-07T21:20:53.163Z,2.63
2019-05-07T21:23:23.100Z,2.65
2019-05-07T21:25:53.103Z,2.65
2019-05-07T21:28:22.176Z,2.42
2019-05-07T21:30:52.202Z,2.37
2019-05-07T21:33:22.817Z,2.47
2019-05-07T21:35:52.561Z,2.30
2019-05-07T21:38:22.290Z,2.22
2019-05-07T21:40:51.498Z,2.40
2019-05-07T21:43:22.264Z,2.30
2019-05-07T21:45:53.027Z,2.40
2019-05-07T21:48:22.488Z,2.70
2019-05-07T21:50:51.929Z,2.10
2019-05-07T21:53:27.026Z,2.20
2019-05-07T21:56:14.484Z,2.43
2019-05-07T21:58:54.092Z,2.30
2019-05-07T22:01:52.602Z,2.17
2019-05-07T22:04:22.351Z,2.37
2019-05-07T22:06:52.332Z,2.70
2019-05-07T22:09:22.295Z,2.08
2019-05-07T22:11:53.685Z,2.53
2019-05-07T22:14:22.468Z,2.40
2019-05-07T22:16:54.278Z,2.30
2019-05-07T22:19:22.165Z,2.60
2019-05-07T22:21:52.289Z,2.30
2019-05-07T22:24:22.345Z,2.40
2019-05-07T22:26:51.643Z,2.35
2019-05-07T22:29:22.584Z,2.30
2019-05-07T22:32:11.888Z,2.30
2019-05-07T22:35:15.635Z,2.20
2019-05-07T22:37:44.472Z,2.15
2019-05-07T22:40:13.559Z,2.30
2019-05-07T22:42:42.477Z,2.27
2019-05-07T22:45:12.265Z,2.47
2019-05-07T22:47:41.979Z,2.40
2019-05-07T22:50:11.992Z,2.30
2019-05-07T22:52:41.235Z,2.42
2019-05-07T22:55:13.904Z,2.20
2019-05-07T22:58:01.866Z,2.08
2019-05-07T23:00:34.452Z,2.40
2019-05-07T23:03:03.426Z,2.33
2019-05-07T23:05:32.565Z,2.20
2019-05-07T23:08:02.372Z,2.62
2019-05-07T23:10:33.332Z,2.50
2019-05-07T23:13:02.696Z,2.47
2019-05-07T23:15:32.236Z,2.22
2019-05-07T23:18:04.092Z,2.40
2019-05-07T23:20:32.141Z,2.60
2019-05-07T23:23:01.230Z,2.22
2019-05-07T23:25:32.278Z,2.33
2019-05-07T23:28:04.832Z,1.98
2019-05-07T23:30:33.082Z,2.27
2019-05-07T23:33:02.551Z,2.50
2019-05-07T23:35:32.865Z,2.33
2019-05-07T23:38:04.366Z,2.25
2019-05-07T23:40:49.970Z,2.20
2019-05-07T23:43:19.550Z,2.30
2019-05-07T23:45:48.503Z,2.90
2019-05-07T23:48:17.525Z,2.35
2019-05-07T23:50:46.491Z,2.40
2019-05-07T23:53:15.446Z,2.25
2019-05-07T23:55:44.530Z,2.35
2019-05-07T23:58:14.180Z,2.50
